Hauptseite
METAR-TAF:

METAR-TAF

Flughäfen :

Militärflugplatz Istrana

Treviso, Italien

Breite: 45-41N, Länge: 012-06E, Höhe: 45 m

METAR: fehlend

Zeit: 01:41 (23:41 UTC)

Prognose

Neuester Wetterbericht von vor 3 Stunden und 41 Minuten, um 20:00 UTC
Gültige Prognose vom 25 um 21 UTC bis 26 um 06 UTC
Wind 5 kt aus Nordost
Sichtweite 10 km oder mehr
keine Wolken unter 1500 m und keine Kumulonimbus oder Gewitterwolken

TAF: LIPS 252000Z 2521/2606 04005KT CAVOK

Wetterbeobachtungen und Prognosen von mehr als 4000 Flughäfen (METAR und TAF Bericht).

Die verfügbaren Stationen werden durch gelbe und rote Markierungen auf der Karte dargestellt.

Führen Sie die Maus auf sie, um den Namen der Station zu sehen.

Darauf klicken, um die Beobachtung von Wetterbeobachtungen und Prognosen zu sehen.

Um die Karte zu ändern : klicken Sie auf den grünen Tasten mit einem schwarzen Kreuz Zum Vergrößern, auf den grünen Button mit einem Gedankenstrich zu verkleinern, oder auf die grünen Pfeile für benachbarte Karten.


METAR-TAF: